createdAt,value
2022-08-22T00:00:18.958Z,23.00
2022-08-22T00:02:43.290Z,24.50
2022-08-22T00:02:58.750Z,23.90
2022-08-22T00:03:12.735Z,23.00
2022-08-22T00:03:17.417Z,23.00
2022-08-22T00:06:07.624Z,23.00
2022-08-22T00:08:56.046Z,23.00
2022-08-22T00:11:45.819Z,23.00
2022-08-22T00:14:31.167Z,22.90
2022-08-22T00:17:02.727Z,22.90
2022-08-22T00:19:58.034Z,22.90
2022-08-22T00:22:59.769Z,22.90
2022-08-22T00:25:57.758Z,22.90
2022-08-22T00:28:55.962Z,22.80
2022-08-22T00:31:45.754Z,22.80
2022-08-22T00:35:02.882Z,22.80
2022-08-22T00:37:41.681Z,22.70
2022-08-22T00:40:27.172Z,22.70
2022-08-22T00:43:08.459Z,22.60
2022-08-22T00:46:16.874Z,22.60
2022-08-22T00:48:56.411Z,22.50
2022-08-22T00:51:56.177Z,22.50
2022-08-22T00:54:47.529Z,22.50
2022-08-22T00:57:26.316Z,22.50
2022-08-22T00:59:59.298Z,22.60
2022-08-22T01:02:55.185Z,22.50
2022-08-22T01:05:44.732Z,22.60
2022-08-22T01:08:30.148Z,22.50
2022-08-22T01:11:30.178Z,22.50
2022-08-22T01:14:08.153Z,22.60
2022-08-22T01:16:35.126Z,22.60
2022-08-22T01:19:37.392Z,22.50
2022-08-22T01:22:42.014Z,22.50
2022-08-22T01:25:42.647Z,22.50
2022-08-22T01:28:37.475Z,22.50
2022-08-22T01:31:39.631Z,22.50
2022-08-22T01:34:24.888Z,22.40
2022-08-22T01:37:12.773Z,22.40
2022-08-22T01:39:58.577Z,22.40
2022-08-22T01:42:48.659Z,22.30
2022-08-22T01:45:36.848Z,22.30
2022-08-22T01:48:21.531Z,22.20
2022-08-22T01:51:02.096Z,22.20
2022-08-22T01:53:43.537Z,22.20
2022-08-22T01:56:15.406Z,22.10
2022-08-22T01:59:02.809Z,22.10
2022-08-22T02:01:49.871Z,22.10
2022-08-22T02:04:32.490Z,22.10
2022-08-22T02:07:08.032Z,22.10
2022-08-22T02:09:58.508Z,22.10
2022-08-22T02:13:03.255Z,22.00
2022-08-22T02:15:39.749Z,22.00
2022-08-22T02:18:06.606Z,22.00
2022-08-22T02:20:43.409Z,22.00
2022-08-22T02:23:26.125Z,22.00
2022-08-22T02:26:02.060Z,22.00
2022-08-22T02:28:39.029Z,22.00
2022-08-22T02:31:33.050Z,21.90
2022-08-22T02:34:13.365Z,21.90
2022-08-22T02:36:53.985Z,21.90
2022-08-22T02:39:36.793Z,22.00
2022-08-22T02:42:34.468Z,22.00
2022-08-22T02:45:19.961Z,22.00
2022-08-22T02:47:50.223Z,22.00
2022-08-22T02:50:52.942Z,21.90
2022-08-22T02:53:52.841Z,21.90
2022-08-22T02:56:31.594Z,21.90
2022-08-22T02:59:14.843Z,21.90
2022-08-22T03:01:47.181Z,21.80
2022-08-22T03:04:44.396Z,21.80
2022-08-22T03:07:20.286Z,21.70
2022-08-22T03:10:10.321Z,21.70
2022-08-22T03:13:09.316Z,21.70
2022-08-22T03:15:49.955Z,21.70
2022-08-22T03:18:40.961Z,21.70
2022-08-22T03:21:24.463Z,21.60
2022-08-22T03:23:58.150Z,21.60
2022-08-22T03:26:48.320Z,21.60
2022-08-22T03:29:26.658Z,21.60
2022-08-22T03:32:16.397Z,21.60
2022-08-22T03:34:57.133Z,21.50
2022-08-22T03:37:44.186Z,21.50
2022-08-22T03:40:20.024Z,21.50
2022-08-22T03:43:06.554Z,21.50
2022-08-22T03:46:18.625Z,21.60
2022-08-22T03:49:05.743Z,21.50
2022-08-22T03:51:54.331Z,21.50
2022-08-22T03:54:56.539Z,21.50
2022-08-22T03:57:35.334Z,21.50
2022-08-22T04:00:18.457Z,21.50
2022-08-22T04:03:00.563Z,21.40
2022-08-22T04:05:53.332Z,21.30
2022-08-22T04:08:42.650Z,21.30
2022-08-22T04:11:39.732Z,21.30
2022-08-22T04:14:24.266Z,21.20
2022-08-22T04:17:09.245Z,21.30
2022-08-22T04:19:57.734Z,21.30
2022-08-22T04:22:49.974Z,21.30
2022-08-22T04:25:31.289Z,21.30
2022-08-22T04:28:10.126Z,21.20
2022-08-22T04:30:45.789Z,21.20
2022-08-22T04:33:23.347Z,21.20
2022-08-22T04:36:29.033Z,21.20
2022-08-22T04:39:12.775Z,21.20
2022-08-22T04:41:52.896Z,21.20
2022-08-22T04:44:44.429Z,21.20
2022-08-22T04:47:41.384Z,21.10
2022-08-22T04:50:17.970Z,21.10
2022-08-22T04:53:04.042Z,21.10
2022-08-22T04:56:06.662Z,21.10
2022-08-22T04:58:55.303Z,21.10
2022-08-22T05:01:41.169Z,21.10
2022-08-22T05:04:18.444Z,21.10
2022-08-22T05:06:50.882Z,21.10
2022-08-22T05:09:22.235Z,21.10
2022-08-22T05:11:53.603Z,21.10
2022-08-22T05:14:32.981Z,21.10
2022-08-22T05:17:00.545Z,21.10
2022-08-22T05:19:33.268Z,21.10
2022-08-22T05:22:01.242Z,21.10
2022-08-22T05:24:32.313Z,21.10
2022-08-22T05:27:05.890Z,21.10
2022-08-22T05:29:33.666Z,21.20
2022-08-22T05:32:06.379Z,21.10
2022-08-22T05:34:42.328Z,21.20
2022-08-22T05:37:45.974Z,21.20
2022-08-22T05:40:33.412Z,21.20
2022-08-22T05:43:00.538Z,21.20
2022-08-22T05:45:29.168Z,21.30
2022-08-22T05:48:04.830Z,21.30
2022-08-22T05:50:51.118Z,21.30
2022-08-22T05:53:33.651Z,21.30
2022-08-22T05:56:17.926Z,21.30
2022-08-22T05:59:16.877Z,21.30
2022-08-22T06:02:22.661Z,21.30
2022-08-22T06:05:00.925Z,21.30
2022-08-22T06:07:47.843Z,21.30
2022-08-22T06:10:29.670Z,21.30
2022-08-22T06:13:11.536Z,21.30
2022-08-22T06:16:09.355Z,21.30
2022-08-22T06:18:38.089Z,21.40
2022-08-22T06:21:10.533Z,21.40
2022-08-22T06:23:45.961Z,21.50
2022-08-22T06:26:20.503Z,21.50
2022-08-22T06:28:54.653Z,21.60
2022-08-22T06:31:32.548Z,21.60
2022-08-22T06:34:17.314Z,21.60
2022-08-22T06:36:48.764Z,21.70
2022-08-22T06:39:21.852Z,21.70
2022-08-22T06:41:54.831Z,21.70
2022-08-22T06:44:29.669Z,21.70
2022-08-22T06:47:00.134Z,21.80
2022-08-22T06:49:29.084Z,21.80
2022-08-22T06:52:11.564Z,21.80
2022-08-22T06:54:44.536Z,21.90
2022-08-22T06:57:29.748Z,21.90
2022-08-22T06:59:58.507Z,21.90
2022-08-22T07:02:33.174Z,21.90
2022-08-22T07:05:00.157Z,21.90
2022-08-22T07:07:28.374Z,21.90
2022-08-22T07:09:57.519Z,21.90
2022-08-22T07:12:31.199Z,22.00
2022-08-22T07:15:01.753Z,22.00
2022-08-22T07:17:32.734Z,22.00
2022-08-22T07:20:22.521Z,22.00
2022-08-22T07:22:58.333Z,21.90
2022-08-22T07:25:26.226Z,21.90
2022-08-22T07:28:21.501Z,21.90
2022-08-22T07:31:38.675Z,21.90
2022-08-22T07:34:23.119Z,21.90
2022-08-22T07:36:58.084Z,21.90
2022-08-22T07:39:39.133Z,21.90
2022-08-22T07:42:15.950Z,22.00
2022-08-22T07:45:04.139Z,22.00
2022-08-22T07:47:49.200Z,22.10
2022-08-22T07:50:24.592Z,22.20
2022-08-22T07:52:53.427Z,22.20
2022-08-22T07:55:23.782Z,22.30
2022-08-22T07:57:58.217Z,22.40
2022-08-22T08:00:29.580Z,22.50
2022-08-22T08:03:02.100Z,22.60
2022-08-22T08:05:32.936Z,22.70
2022-08-22T08:08:03.900Z,22.80
2022-08-22T12:50:58.017Z,32.40
2022-08-22T12:53:42.156Z,32.60
2022-08-22T12:56:27.884Z,32.70
2022-08-22T12:59:22.667Z,32.80
2022-08-22T13:01:57.610Z,32.80
2022-08-22T13:04:33.288Z,33.00
2022-08-22T13:07:07.476Z,33.10
2022-08-22T13:09:38.911Z,32.90
2022-08-22T13:12:23.937Z,32.90
2022-08-22T13:14:56.505Z,32.80
2022-08-22T13:17:25.786Z,32.70
2022-08-22T13:20:09.161Z,32.70
2022-08-22T13:22:40.925Z,32.90
2022-08-22T13:25:25.892Z,33.00
2022-08-22T13:28:02.570Z,33.10
2022-08-22T13:30:37.594Z,33.10
2022-08-22T13:33:16.381Z,33.00
2022-08-22T13:35:52.723Z,33.00
2022-08-22T13:38:26.047Z,33.20
2022-08-22T13:40:58.315Z,33.20
2022-08-22T13:44:01.633Z,33.30
2022-08-22T13:46:35.418Z,33.20
2022-08-22T13:49:07.203Z,33.20
2022-08-22T13:51:49.803Z,33.30
2022-08-22T13:54:16.680Z,33.40
2022-08-22T13:57:05.529Z,33.60
2022-08-22T14:00:05.915Z,33.60
2022-08-22T14:02:58.964Z,33.70
2022-08-22T14:05:38.720Z,33.80
2022-08-22T14:08:15.342Z,33.90
2022-08-22T14:11:02.168Z,34.00
2022-08-22T14:13:52.819Z,34.10
2022-08-22T14:16:25.048Z,34.10
2022-08-22T14:19:00.145Z,34.00
2022-08-22T14:21:40.770Z,34.00
2022-08-22T14:24:25.456Z,34.20
2022-08-22T14:27:17.324Z,34.20
2022-08-22T14:29:52.037Z,34.20
2022-08-22T14:32:19.387Z,34.10
2022-08-22T14:35:21.720Z,34.00
2022-08-22T14:38:27.305Z,34.00
2022-08-22T14:41:03.875Z,34.10
2022-08-22T14:43:32.153Z,34.10
2022-08-22T14:46:09.108Z,34.00
2022-08-22T14:48:44.139Z,34.00
2022-08-22T14:51:22.022Z,34.10
2022-08-22T14:53:50.144Z,34.10
2022-08-22T14:56:24.549Z,34.10
2022-08-22T14:59:04.942Z,33.90
2022-08-22T15:01:53.141Z,33.70
2022-08-22T15:04:28.547Z,33.50
2022-08-22T15:06:58.774Z,33.40
2022-08-22T15:10:06.893Z,33.30
2022-08-22T15:12:50.001Z,33.10
2022-08-22T15:15:49.519Z,32.90
2022-08-22T15:18:29.874Z,32.80
2022-08-22T15:21:08.522Z,32.70
2022-08-22T15:23:44.733Z,32.60
2022-08-22T15:26:24.636Z,32.50
2022-08-22T15:29:26.433Z,32.40
2022-08-22T15:31:59.329Z,32.20
2022-08-22T15:34:32.665Z,32.10
2022-08-22T15:37:17.787Z,32.00
2022-08-22T15:40:31.627Z,31.90
2022-08-22T15:43:28.905Z,31.80
2022-08-22T15:46:26.191Z,31.80
2022-08-22T15:49:01.221Z,31.80
2022-08-22T15:51:46.515Z,31.90
2022-08-22T15:54:24.632Z,31.80
2022-08-22T15:56:52.670Z,31.70
2022-08-22T15:59:47.790Z,31.60
2022-08-22T16:02:53.238Z,31.50
2022-08-22T16:05:36.410Z,31.40
2022-08-22T16:08:12.294Z,31.40
2022-08-22T16:10:49.518Z,31.30
2022-08-22T16:13:38.437Z,31.30
2022-08-22T16:16:10.277Z,31.40
2022-08-22T16:18:40.316Z,31.40
2022-08-22T16:21:23.783Z,31.30
2022-08-22T16:23:56.980Z,31.20
2022-08-22T16:26:45.540Z,31.20
2022-08-22T16:29:17.818Z,31.20
2022-08-22T16:31:47.965Z,31.30
2022-08-22T16:34:20.618Z,31.40
2022-08-22T16:36:53.477Z,31.40
2022-08-22T16:39:23.158Z,31.40
2022-08-22T16:41:56.538Z,31.50
2022-08-22T16:44:29.480Z,31.40
2022-08-22T16:47:17.153Z,31.50
2022-08-22T16:49:50.081Z,31.40
2022-08-22T16:52:26.370Z,31.40
2022-08-22T16:55:23.536Z,31.30
2022-08-22T16:58:06.121Z,31.20
2022-08-22T17:00:36.986Z,31.20
2022-08-22T17:03:12.713Z,31.20
2022-08-22T17:05:58.181Z,31.10
2022-08-22T17:08:42.962Z,31.10
2022-08-22T17:11:24.534Z,31.00
2022-08-22T17:14:28.258Z,31.00
2022-08-22T17:17:14.314Z,30.90
2022-08-22T17:20:11.070Z,30.80
2022-08-22T17:22:41.350Z,30.70
2022-08-22T17:25:38.536Z,30.70
2022-08-22T17:28:20.263Z,30.60
2022-08-22T17:31:08.246Z,30.50
2022-08-22T17:33:41.064Z,30.40
2022-08-22T17:36:37.754Z,30.40
2022-08-22T17:39:26.826Z,30.30
2022-08-22T17:42:15.418Z,30.30
2022-08-22T17:44:58.844Z,30.20
2022-08-22T17:47:38.806Z,30.20
2022-08-22T17:50:23.414Z,30.10
2022-08-22T17:53:16.504Z,30.00
2022-08-22T17:56:01.741Z,30.00
2022-08-22T17:58:43.591Z,29.90
2022-08-22T18:01:32.556Z,29.90
2022-08-22T18:04:04.420Z,29.80
2022-08-22T18:06:36.326Z,29.80
2022-08-22T18:09:14.181Z,29.80
2022-08-22T18:12:17.121Z,29.70
2022-08-22T18:15:04.551Z,29.70
2022-08-22T18:17:50.933Z,29.60
2022-08-22T18:20:24.339Z,29.60
2022-08-22T18:22:56.886Z,29.50
2022-08-22T18:25:23.772Z,29.50
2022-08-22T18:28:04.707Z,29.50
2022-08-22T18:30:53.657Z,29.40
2022-08-22T18:33:34.155Z,29.30
2022-08-22T18:36:13.541Z,29.30
2022-08-22T18:39:05.810Z,29.20
2022-08-22T18:41:42.980Z,29.20
2022-08-22T18:44:34.484Z,29.10
2022-08-22T18:47:12.480Z,29.00
2022-08-22T18:49:43.993Z,29.00
2022-08-22T18:52:13.029Z,28.90
2022-08-22T18:54:58.876Z,28.80
2022-08-22T18:58:01.342Z,28.80
2022-08-22T19:00:38.456Z,28.70
2022-08-22T19:03:29.853Z,28.70
2022-08-22T19:06:35.791Z,28.60
2022-08-22T19:09:47.151Z,28.60
2022-08-22T19:13:05.024Z,28.50
2022-08-22T19:15:35.214Z,28.40
2022-08-22T19:18:24.616Z,28.40
2022-08-22T19:21:40.816Z,28.30
2022-08-22T19:24:54.509Z,28.30
2022-08-22T19:27:31.241Z,28.20
2022-08-22T19:30:04.740Z,28.10
2022-08-22T19:32:46.749Z,28.10
2022-08-22T19:35:26.119Z,28.00
2022-08-22T19:37:57.604Z,28.00
2022-08-22T19:40:46.285Z,27.90
2022-08-22T19:43:40.388Z,27.90
2022-08-22T19:46:10.953Z,27.90
2022-08-22T19:48:52.568Z,27.80
2022-08-22T19:51:19.362Z,27.80
2022-08-22T19:54:02.119Z,27.80
2022-08-22T19:56:48.146Z,27.70
2022-08-22T19:59:33.883Z,27.70
2022-08-22T20:02:19.234Z,27.60
2022-08-22T20:05:01.679Z,27.50
2022-08-22T20:07:36.416Z,27.50
2022-08-22T20:10:42.474Z,27.40
2022-08-22T20:13:25.033Z,27.30
2022-08-22T20:16:07.396Z,27.30
2022-08-22T20:19:08.948Z,27.30
2022-08-22T20:21:43.885Z,27.30
2022-08-22T20:24:27.286Z,27.20
2022-08-22T20:27:13.185Z,27.10
2022-08-22T20:29:59.134Z,27.10
2022-08-22T20:32:26.854Z,27.00
2022-08-22T20:34:59.043Z,27.00
2022-08-22T20:38:03.259Z,26.90
2022-08-22T20:40:55.163Z,26.90
2022-08-22T20:44:05.513Z,26.90
2022-08-22T20:46:53.569Z,26.90
2022-08-22T20:49:28.265Z,26.90
2022-08-22T20:52:02.087Z,26.90
2022-08-22T20:54:35.087Z,26.90
2022-08-22T20:57:16.129Z,26.90
2022-08-22T20:59:52.334Z,26.90
2022-08-22T21:02:30.570Z,26.90
2022-08-22T21:05:01.863Z,26.80
2022-08-22T21:07:38.481Z,26.80
2022-08-22T21:10:33.656Z,26.80
2022-08-22T21:13:07.939Z,26.80
2022-08-22T21:15:41.708Z,26.80
2022-08-22T21:18:14.691Z,26.70
2022-08-22T21:20:41.704Z,26.80
2022-08-22T21:23:15.396Z,26.70
2022-08-22T21:26:01.364Z,26.70
2022-08-22T21:28:35.446Z,26.70
2022-08-22T21:31:14.390Z,26.60
2022-08-22T21:33:43.845Z,26.60
2022-08-22T21:36:14.473Z,26.60
2022-08-22T21:38:48.104Z,26.60
2022-08-22T21:41:19.386Z,26.50
2022-08-22T21:43:48.194Z,26.50
2022-08-22T21:46:28.755Z,26.50
2022-08-22T21:49:05.140Z,26.50
2022-08-22T21:51:42.278Z,26.50
2022-08-22T21:54:31.241Z,26.40
2022-08-22T21:57:10.398Z,26.40
2022-08-22T21:59:52.048Z,26.40
2022-08-22T22:02:39.308Z,26.30
2022-08-22T22:05:12.678Z,26.30
2022-08-22T22:07:41.608Z,26.20
2022-08-22T22:10:11.097Z,26.20
2022-08-22T22:12:42.704Z,26.20
2022-08-22T22:15:14.376Z,26.20
2022-08-22T22:17:41.215Z,26.20
2022-08-22T22:20:08.561Z,26.10
2022-08-22T22:22:36.935Z,26.10
2022-08-22T22:25:40.102Z,26.10
2022-08-22T22:27:59.959Z,26.00
2022-08-22T22:30:26.861Z,26.00
2022-08-22T22:32:53.654Z,26.00
2022-08-22T22:35:21.718Z,26.00
2022-08-22T22:37:48.721Z,26.00
2022-08-22T22:40:15.575Z,25.90
2022-08-22T22:42:42.815Z,25.90
2022-08-22T22:45:10.801Z,25.80
2022-08-22T22:47:38.075Z,25.80
2022-08-22T22:50:05.642Z,25.80
2022-08-22T22:52:32.658Z,25.80
2022-08-22T22:54:59.528Z,25.70
2022-08-22T22:57:26.441Z,25.70
2022-08-22T22:59:55.584Z,25.70
2022-08-22T23:02:23.714Z,25.70
2022-08-22T23:04:54.130Z,25.70
2022-08-22T23:07:24.297Z,25.70
2022-08-22T23:09:56.047Z,25.60
2022-08-22T23:12:25.934Z,25.60
2022-08-22T23:14:52.991Z,25.60
2022-08-22T23:17:20.347Z,25.60
2022-08-22T23:19:47.664Z,25.60
2022-08-22T23:22:14.717Z,25.60
2022-08-22T23:24:41.732Z,25.50
2022-08-22T23:27:10.214Z,25.50
2022-08-22T23:29:40.951Z,25.50
2022-08-22T23:32:10.653Z,25.50
2022-08-22T23:34:43.793Z,25.50
2022-08-22T23:37:12.007Z,25.40
2022-08-22T23:39:39.211Z,25.40
2022-08-22T23:42:07.838Z,25.40
2022-08-22T23:44:36.822Z,25.40
2022-08-22T23:47:05.606Z,25.30
2022-08-22T23:49:33.482Z,25.30
2022-08-22T23:52:00.362Z,25.30
2022-08-22T23:54:27.322Z,25.20
2022-08-22T23:56:57.493Z,25.20
2022-08-22T23:59:30.667Z,25.20
